sensor_id;sensor_type;location;lat;lon;timestamp;temperature;humidity
19039;DHT22;9652;49.014;12.052;2023-04-06T00:01:03;4.30;50.40
19039;DHT22;9652;49.014;12.052;2023-04-06T00:03:30;4.30;50.50
19039;DHT22;9652;49.014;12.052;2023-04-06T00:05:58;4.30;50.50
19039;DHT22;9652;49.014;12.052;2023-04-06T00:08:25;4.30;50.60
19039;DHT22;9652;49.014;12.052;2023-04-06T00:10:52;4.30;50.50
19039;DHT22;9652;49.014;12.052;2023-04-06T00:13:20;4.20;50.60
19039;DHT22;9652;49.014;12.052;2023-04-06T00:15:47;4.20;50.60
19039;DHT22;9652;49.014;12.052;2023-04-06T00:18:14;4.20;50.70
19039;DHT22;9652;49.014;12.052;2023-04-06T00:20:41;4.20;50.80
19039;DHT22;9652;49.014;12.052;2023-04-06T00:23:09;4.20;50.80
19039;DHT22;9652;49.014;12.052;2023-04-06T00:25:36;4.10;51.00
19039;DHT22;9652;49.014;12.052;2023-04-06T00:28:03;4.10;51.00
19039;DHT22;9652;49.014;12.052;2023-04-06T00:30:31;4.10;51.00
19039;DHT22;9652;49.014;12.052;2023-04-06T00:32:58;4.10;51.10
19039;DHT22;9652;49.014;12.052;2023-04-06T00:35:25;4.10;51.20
19039;DHT22;9652;49.014;12.052;2023-04-06T00:37:52;4.10;51.20
19039;DHT22;9652;49.014;12.052;2023-04-06T00:40:20;4.10;51.30
19039;DHT22;9652;49.014;12.052;2023-04-06T00:42:48;4.00;51.40
19039;DHT22;9652;49.014;12.052;2023-04-06T00:45:15;4.00;51.40
19039;DHT22;9652;49.014;12.052;2023-04-06T00:47:43;4.00;51.50
19039;DHT22;9652;49.014;12.052;2023-04-06T00:50:10;4.00;51.50
19039;DHT22;9652;49.014;12.052;2023-04-06T00:52:37;4.00;51.50
19039;DHT22;9652;49.014;12.052;2023-04-06T00:55:08;3.90;51.50
19039;DHT22;9652;49.014;12.052;2023-04-06T00:57:41;3.90;51.60
19039;DHT22;9652;49.014;12.052;2023-04-06T01:00:09;3.90;51.70
19039;DHT22;9652;49.014;12.052;2023-04-06T01:02:38;3.90;51.60
19039;DHT22;9652;49.014;12.052;2023-04-06T01:05:07;3.80;51.60
19039;DHT22;9652;49.014;12.052;2023-04-06T01:07:45;3.90;51.70
19039;DHT22;9652;49.014;12.052;2023-04-06T01:10:23;3.90;51.80
19039;DHT22;9652;49.014;12.052;2023-04-06T01:12:55;3.80;52.00
19039;DHT22;9652;49.014;12.052;2023-04-06T01:15:41;3.90;51.90
19039;DHT22;9652;49.014;12.052;2023-04-06T01:18:13;3.80;51.80
19039;DHT22;9652;49.014;12.052;2023-04-06T01:20:46;3.80;51.80
19039;DHT22;9652;49.014;12.052;2023-04-06T01:23:16;3.80;52.00
19039;DHT22;9652;49.014;12.052;2023-04-06T01:25:46;3.70;52.00
19039;DHT22;9652;49.014;12.052;2023-04-06T01:28:13;3.70;51.90
19039;DHT22;9652;49.014;12.052;2023-04-06T01:30:58;3.70;51.90
19039;DHT22;9652;49.014;12.052;2023-04-06T01:33:44;3.70;51.90
19039;DHT22;9652;49.014;12.052;2023-04-06T01:36:16;3.70;51.90
19039;DHT22;9652;49.014;12.052;2023-04-06T01:38:48;3.70;52.00
19039;DHT22;9652;49.014;12.052;2023-04-06T01:41:18;3.80;52.20
19039;DHT22;9652;49.014;12.052;2023-04-06T01:43:51;3.60;52.00
19039;DHT22;9652;49.014;12.052;2023-04-06T01:46:21;3.60;52.20
19039;DHT22;9652;49.014;12.052;2023-04-06T01:48:49;3.60;52.20
19039;DHT22;9652;49.014;12.052;2023-04-06T01:51:29;3.60;52.30
19039;DHT22;9652;49.014;12.052;2023-04-06T01:54:01;3.60;52.30
19039;DHT22;9652;49.014;12.052;2023-04-06T01:56:40;3.50;52.50
19039;DHT22;9652;49.014;12.052;2023-04-06T01:59:24;3.50;52.50
19039;DHT22;9652;49.014;12.052;2023-04-06T02:01:52;3.60;52.60
19039;DHT22;9652;49.014;12.052;2023-04-06T02:04:20;3.60;52.80
19039;DHT22;9652;49.014;12.052;2023-04-06T02:06:53;3.60;53.00
19039;DHT22;9652;49.014;12.052;2023-04-06T02:09:27;3.60;53.00
19039;DHT22;9652;49.014;12.052;2023-04-06T02:11:54;3.60;53.20
19039;DHT22;9652;49.014;12.052;2023-04-06T02:14:24;3.70;53.20
19039;DHT22;9652;49.014;12.052;2023-04-06T02:16:55;3.70;53.30
19039;DHT22;9652;49.014;12.052;2023-04-06T02:19:22;3.70;53.20
19039;DHT22;9652;49.014;12.052;2023-04-06T02:21:49;3.80;53.20
19039;DHT22;9652;49.014;12.052;2023-04-06T02:24:17;3.70;53.30
19039;DHT22;9652;49.014;12.052;2023-04-06T02:26:45;3.80;53.30
19039;DHT22;9652;49.014;12.052;2023-04-06T02:29:12;3.80;53.30
19039;DHT22;9652;49.014;12.052;2023-04-06T02:31:39;3.80;53.20
19039;DHT22;9652;49.014;12.052;2023-04-06T02:34:08;3.80;53.20
19039;DHT22;9652;49.014;12.052;2023-04-06T02:36:38;3.80;53.10
19039;DHT22;9652;49.014;12.052;2023-04-06T02:39:06;3.80;53.10
19039;DHT22;9652;49.014;12.052;2023-04-06T02:41:34;3.80;53.10
19039;DHT22;9652;49.014;12.052;2023-04-06T02:44:05;3.80;53.10
19039;DHT22;9652;49.014;12.052;2023-04-06T02:46:38;3.80;53.10
19039;DHT22;9652;49.014;12.052;2023-04-06T02:49:06;3.70;53.00
19039;DHT22;9652;49.014;12.052;2023-04-06T02:51:34;3.70;53.00
19039;DHT22;9652;49.014;12.052;2023-04-06T02:54:30;3.70;53.10
19039;DHT22;9652;49.014;12.052;2023-04-06T02:56:58;3.70;53.10
19039;DHT22;9652;49.014;12.052;2023-04-06T02:59:36;3.60;53.20
19039;DHT22;9652;49.014;12.052;2023-04-06T03:02:18;3.60;53.30
19039;DHT22;9652;49.014;12.052;2023-04-06T03:04:45;3.50;53.20
19039;DHT22;9652;49.014;12.052;2023-04-06T03:07:28;3.50;53.30
19039;DHT22;9652;49.014;12.052;2023-04-06T03:09:55;3.50;53.30
19039;DHT22;9652;49.014;12.052;2023-04-06T03:12:22;3.50;53.30
19039;DHT22;9652;49.014;12.052;2023-04-06T03:15:10;3.50;53.40
19039;DHT22;9652;49.014;12.052;2023-04-06T03:17:42;3.50;53.50
19039;DHT22;9652;49.014;12.052;2023-04-06T03:20:19;3.40;53.40
19039;DHT22;9652;49.014;12.052;2023-04-06T03:22:46;3.40;53.50
19039;DHT22;9652;49.014;12.052;2023-04-06T03:25:16;3.40;53.60
19039;DHT22;9652;49.014;12.052;2023-04-06T03:27:44;3.40;53.60
19039;DHT22;9652;49.014;12.052;2023-04-06T03:30:17;3.40;53.60
19039;DHT22;9652;49.014;12.052;2023-04-06T03:32:44;3.30;53.70
19039;DHT22;9652;49.014;12.052;2023-04-06T03:35:11;3.30;53.60
19039;DHT22;9652;49.014;12.052;2023-04-06T03:37:38;3.30;53.70
19039;DHT22;9652;49.014;12.052;2023-04-06T03:40:06;3.30;53.70
19039;DHT22;9652;49.014;12.052;2023-04-06T03:42:34;3.30;53.80
19039;DHT22;9652;49.014;12.052;2023-04-06T03:45:07;3.20;53.80
19039;DHT22;9652;49.014;12.052;2023-04-06T03:47:39;3.20;53.90
19039;DHT22;9652;49.014;12.052;2023-04-06T03:50:08;3.20;54.00
19039;DHT22;9652;49.014;12.052;2023-04-06T03:52:36;3.10;53.90
19039;DHT22;9652;49.014;12.052;2023-04-06T03:55:04;3.10;54.00
19039;DHT22;9652;49.014;12.052;2023-04-06T03:57:32;3.10;54.00
19039;DHT22;9652;49.014;12.052;2023-04-06T03:59:59;3.10;54.10
19039;DHT22;9652;49.014;12.052;2023-04-06T04:02:26;3.00;54.10
19039;DHT22;9652;49.014;12.052;2023-04-06T04:04:54;3.00;54.10
19039;DHT22;9652;49.014;12.052;2023-04-06T04:07:21;3.00;54.10
19039;DHT22;9652;49.014;12.052;2023-04-06T04:09:49;3.00;54.10
19039;DHT22;9652;49.014;12.052;2023-04-06T04:12:17;3.00;54.20
19039;DHT22;9652;49.014;12.052;2023-04-06T04:14:45;3.00;54.40
19039;DHT22;9652;49.014;12.052;2023-04-06T04:17:12;3.00;54.40
19039;DHT22;9652;49.014;12.052;2023-04-06T04:19:39;2.90;54.40
19039;DHT22;9652;49.014;12.052;2023-04-06T04:22:08;3.00;54.50
19039;DHT22;9652;49.014;12.052;2023-04-06T04:24:38;2.90;54.60
19039;DHT22;9652;49.014;12.052;2023-04-06T04:27:06;3.00;54.60
19039;DHT22;9652;49.014;12.052;2023-04-06T04:29:34;3.00;54.60
19039;DHT22;9652;49.014;12.052;2023-04-06T04:32:05;3.00;54.70
19039;DHT22;9652;49.014;12.052;2023-04-06T04:34:33;2.90;54.60
19039;DHT22;9652;49.014;12.052;2023-04-06T04:37:01;2.90;54.60
19039;DHT22;9652;49.014;12.052;2023-04-06T04:39:44;2.90;55.20
19039;DHT22;9652;49.014;12.052;2023-04-06T04:42:12;2.90;54.80
19039;DHT22;9652;49.014;12.052;2023-04-06T04:44:45;2.90;54.80
19039;DHT22;9652;49.014;12.052;2023-04-06T04:47:13;2.90;54.70
19039;DHT22;9652;49.014;12.052;2023-04-06T04:49:44;2.90;54.80
19039;DHT22;9652;49.014;12.052;2023-04-06T04:52:17;2.90;54.80
19039;DHT22;9652;49.014;12.052;2023-04-06T04:55:01;2.80;54.80
19039;DHT22;9652;49.014;12.052;2023-04-06T04:57:28;2.80;54.90
19039;DHT22;9652;49.014;12.052;2023-04-06T04:59:56;2.90;54.90
19039;DHT22;9652;49.014;12.052;2023-04-06T05:02:23;2.80;54.90
19039;DHT22;9652;49.014;12.052;2023-04-06T05:05:12;2.80;55.00
19039;DHT22;9652;49.014;12.052;2023-04-06T05:07:40;3.20;55.20
19039;DHT22;9652;49.014;12.052;2023-04-06T05:10:14;2.80;55.00
19039;DHT22;9652;49.014;12.052;2023-04-06T05:12:51;2.80;55.10
19039;DHT22;9652;49.014;12.052;2023-04-06T05:15:18;2.80;55.10
19039;DHT22;9652;49.014;12.052;2023-04-06T05:17:46;2.80;55.20
19039;DHT22;9652;49.014;12.052;2023-04-06T05:20:19;2.80;55.20
19039;DHT22;9652;49.014;12.052;2023-04-06T05:22:49;2.80;55.30
19039;DHT22;9652;49.014;12.052;2023-04-06T05:25:18;2.80;55.30
19039;DHT22;9652;49.014;12.052;2023-04-06T05:27:48;2.80;55.40
19039;DHT22;9652;49.014;12.052;2023-04-06T05:30:26;2.90;55.40
19039;DHT22;9652;49.014;12.052;2023-04-06T05:32:54;2.80;55.40
19039;DHT22;9652;49.014;12.052;2023-04-06T05:35:23;2.90;55.50
19039;DHT22;9652;49.014;12.052;2023-04-06T05:37:55;2.90;55.60
19039;DHT22;9652;49.014;12.052;2023-04-06T05:40:26;2.90;55.50
19039;DHT22;9652;49.014;12.052;2023-04-06T05:42:53;2.90;55.60
19039;DHT22;9652;49.014;12.052;2023-04-06T05:45:20;2.90;55.60
19039;DHT22;9652;49.014;12.052;2023-04-06T05:47:52;3.00;55.80
19039;DHT22;9652;49.014;12.052;2023-04-06T05:50:26;3.10;55.90
19039;DHT22;9652;49.014;12.052;2023-04-06T05:52:55;3.10;56.00
19039;DHT22;9652;49.014;12.052;2023-04-06T05:55:28;3.20;56.00
19039;DHT22;9652;49.014;12.052;2023-04-06T05:58:07;3.20;56.00
19039;DHT22;9652;49.014;12.052;2023-04-06T06:00:35;3.30;56.00
19039;DHT22;9652;49.014;12.052;2023-04-06T06:03:05;3.40;56.00
19039;DHT22;9652;49.014;12.052;2023-04-06T06:05:34;3.40;56.00
19039;DHT22;9652;49.014;12.052;2023-04-06T06:08:09;3.50;56.00
19039;DHT22;9652;49.014;12.052;2023-04-06T06:10:39;3.60;56.00
19039;DHT22;9652;49.014;12.052;2023-04-06T06:13:09;3.90;56.30
19039;DHT22;9652;49.014;12.052;2023-04-06T06:15:36;3.70;56.10
19039;DHT22;9652;49.014;12.052;2023-04-06T06:18:03;3.90;56.30
19039;DHT22;9652;49.014;12.052;2023-04-06T06:20:31;4.00;56.50
19039;DHT22;9652;49.014;12.052;2023-04-06T06:23:01;4.10;56.40
19039;DHT22;9652;49.014;12.052;2023-04-06T06:25:29;4.30;56.30
19039;DHT22;9652;49.014;12.052;2023-04-06T06:27:59;4.40;56.20
19039;DHT22;9652;49.014;12.052;2023-04-06T06:30:29;4.60;56.10
19039;DHT22;9652;49.014;12.052;2023-04-06T06:32:56;4.70;56.00
19039;DHT22;9652;49.014;12.052;2023-04-06T06:35:24;4.80;55.80
19039;DHT22;9652;49.014;12.052;2023-04-06T06:37:51;4.90;55.80
19039;DHT22;9652;49.014;12.052;2023-04-06T06:40:21;5.00;55.50
19039;DHT22;9652;49.014;12.052;2023-04-06T06:42:50;5.10;56.00
19039;DHT22;9652;49.014;12.052;2023-04-06T06:45:29;5.20;55.40
19039;DHT22;9652;49.014;12.052;2023-04-06T06:47:56;5.40;55.20
19039;DHT22;9652;49.014;12.052;2023-04-06T06:50:23;5.50;55.70
19039;DHT22;9652;49.014;12.052;2023-04-06T06:52:50;5.60;55.10
19039;DHT22;9652;49.014;12.052;2023-04-06T06:55:18;5.70;54.90
19039;DHT22;9652;49.014;12.052;2023-04-06T06:57:46;5.80;54.90
19039;DHT22;9652;49.014;12.052;2023-04-06T07:00:14;5.90;54.70
19039;DHT22;9652;49.014;12.052;2023-04-06T07:02:44;6.00;54.50
19039;DHT22;9652;49.014;12.052;2023-04-06T07:05:11;6.10;54.50
19039;DHT22;9652;49.014;12.052;2023-04-06T07:07:39;6.20;54.30
19039;DHT22;9652;49.014;12.052;2023-04-06T07:10:07;6.30;54.20
19039;DHT22;9652;49.014;12.052;2023-04-06T07:12:37;6.40;54.10
19039;DHT22;9652;49.014;12.052;2023-04-06T07:15:05;6.50;54.00
19039;DHT22;9652;49.014;12.052;2023-04-06T07:17:34;6.60;53.80
19039;DHT22;9652;49.014;12.052;2023-04-06T07:20:03;6.70;53.70
19039;DHT22;9652;49.014;12.052;2023-04-06T07:22:31;6.80;53.50
19039;DHT22;9652;49.014;12.052;2023-04-06T07:24:58;6.90;53.40
19039;DHT22;9652;49.014;12.052;2023-04-06T07:27:25;7.00;53.40
19039;DHT22;9652;49.014;12.052;2023-04-06T07:29:52;7.00;53.20
19039;DHT22;9652;49.014;12.052;2023-04-06T07:32:19;7.10;53.10
19039;DHT22;9652;49.014;12.052;2023-04-06T07:34:47;7.30;53.10
19039;DHT22;9652;49.014;12.052;2023-04-06T07:37:15;7.30;53.00
19039;DHT22;9652;49.014;12.052;2023-04-06T07:39:42;7.40;52.80
19039;DHT22;9652;49.014;12.052;2023-04-06T07:42:11;7.50;52.50
19039;DHT22;9652;49.014;12.052;2023-04-06T07:44:38;7.60;52.30
19039;DHT22;9652;49.014;12.052;2023-04-06T07:47:05;7.70;52.30
19039;DHT22;9652;49.014;12.052;2023-04-06T07:49:32;7.80;52.10
19039;DHT22;9652;49.014;12.052;2023-04-06T07:52:01;7.90;52.10
19039;DHT22;9652;49.014;12.052;2023-04-06T07:54:30;8.00;51.90
19039;DHT22;9652;49.014;12.052;2023-04-06T07:56:57;8.10;51.70
19039;DHT22;9652;49.014;12.052;2023-04-06T07:59:24;8.20;51.70
19039;DHT22;9652;49.014;12.052;2023-04-06T08:01:51;8.30;51.70
19039;DHT22;9652;49.014;12.052;2023-04-06T08:04:20;8.30;51.40
19039;DHT22;9652;49.014;12.052;2023-04-06T08:06:47;8.40;51.30
19039;DHT22;9652;49.014;12.052;2023-04-06T08:09:14;8.50;51.20
19039;DHT22;9652;49.014;12.052;2023-04-06T08:11:42;8.60;51.20
19039;DHT22;9652;49.014;12.052;2023-04-06T08:14:10;8.70;51.10
19039;DHT22;9652;49.014;12.052;2023-04-06T08:16:37;8.80;51.10
19039;DHT22;9652;49.014;12.052;2023-04-06T08:19:04;8.80;51.10
19039;DHT22;9652;49.014;12.052;2023-04-06T08:21:33;8.90;51.10
19039;DHT22;9652;49.014;12.052;2023-04-06T08:24:00;9.00;51.00
19039;DHT22;9652;49.014;12.052;2023-04-06T08:26:28;9.10;50.90
19039;DHT22;9652;49.014;12.052;2023-04-06T08:28:56;9.10;50.80
19039;DHT22;9652;49.014;12.052;2023-04-06T08:31:23;9.20;50.70
19039;DHT22;9652;49.014;12.052;2023-04-06T08:33:51;9.30;50.70
19039;DHT22;9652;49.014;12.052;2023-04-06T08:36:18;9.40;50.80
19039;DHT22;9652;49.014;12.052;2023-04-06T08:38:48;9.40;50.50
19039;DHT22;9652;49.014;12.052;2023-04-06T08:41:17;9.50;50.50
19039;DHT22;9652;49.014;12.052;2023-04-06T08:43:47;9.60;50.50
19039;DHT22;9652;49.014;12.052;2023-04-06T08:46:17;9.70;50.40
19039;DHT22;9652;49.014;12.052;2023-04-06T08:48:45;9.80;50.30
19039;DHT22;9652;49.014;12.052;2023-04-06T08:51:15;9.70;50.10
19039;DHT22;9652;49.014;12.052;2023-04-06T08:53:43;9.90;50.10
19039;DHT22;9652;49.014;12.052;2023-04-06T08:56:10;10.00;50.10
19039;DHT22;9652;49.014;12.052;2023-04-06T08:58:40;10.00;50.10
19039;DHT22;9652;49.014;12.052;2023-04-06T09:01:09;10.10;50.00
19039;DHT22;9652;49.014;12.052;2023-04-06T09:03:40;10.20;50.00
19039;DHT22;9652;49.014;12.052;2023-04-06T09:06:09;10.30;49.80
19039;DHT22;9652;49.014;12.052;2023-04-06T09:08:39;10.40;49.70
19039;DHT22;9652;49.014;12.052;2023-04-06T09:11:08;10.40;49.40
19039;DHT22;9652;49.014;12.052;2023-04-06T09:13:45;10.50;49.50
19039;DHT22;9652;49.014;12.052;2023-04-06T09:16:13;10.60;48.80
19039;DHT22;9652;49.014;12.052;2023-04-06T09:18:42;10.70;49.10
19039;DHT22;9652;49.014;12.052;2023-04-06T09:21:09;10.80;48.90
19039;DHT22;9652;49.014;12.052;2023-04-06T09:23:37;10.90;48.80
19039;DHT22;9652;49.014;12.052;2023-04-06T09:26:06;10.90;48.80
19039;DHT22;9652;49.014;12.052;2023-04-06T09:28:42;11.00;48.60
19039;DHT22;9652;49.014;12.052;2023-04-06T09:31:14;11.10;48.00
19039;DHT22;9652;49.014;12.052;2023-04-06T09:33:45;11.20;48.30
19039;DHT22;9652;49.014;12.052;2023-04-06T09:36:12;11.30;48.10
19039;DHT22;9652;49.014;12.052;2023-04-06T09:38:52;11.40;48.00
19039;DHT22;9652;49.014;12.052;2023-04-06T09:41:22;11.50;47.00
19039;DHT22;9652;49.014;12.052;2023-04-06T09:43:51;11.60;47.60
19039;DHT22;9652;49.014;12.052;2023-04-06T09:46:21;11.60;47.50
19039;DHT22;9652;49.014;12.052;2023-04-06T09:48:51;11.70;47.20
19039;DHT22;9652;49.014;12.052;2023-04-06T09:51:20;11.80;47.30
19039;DHT22;9652;49.014;12.052;2023-04-06T09:53:52;11.80;46.90
19039;DHT22;9652;49.014;12.052;2023-04-06T09:56:24;11.90;46.50
19039;DHT22;9652;49.014;12.052;2023-04-06T09:59:05;11.90;46.50
19039;DHT22;9652;49.014;12.052;2023-04-06T10:01:40;12.00;46.70
19039;DHT22;9652;49.014;12.052;2023-04-06T10:04:21;12.10;46.70
19039;DHT22;9652;49.014;12.052;2023-04-06T10:06:58;12.20;45.90
19039;DHT22;9652;49.014;12.052;2023-04-06T10:09:28;12.30;46.50
19039;DHT22;9652;49.014;12.052;2023-04-06T10:12:02;12.30;46.00
19039;DHT22;9652;49.014;12.052;2023-04-06T10:14:31;12.40;46.10
19039;DHT22;9652;49.014;12.052;2023-04-06T10:17:03;12.50;45.80
19039;DHT22;9652;49.014;12.052;2023-04-06T10:19:41;12.60;46.00
19039;DHT22;9652;49.014;12.052;2023-04-06T10:22:21;12.60;45.00
19039;DHT22;9652;49.014;12.052;2023-04-06T10:24:53;12.70;45.20
19039;DHT22;9652;49.014;12.052;2023-04-06T10:27:27;12.80;45.60
19039;DHT22;9652;49.014;12.052;2023-04-06T10:30:01;12.90;45.00
19039;DHT22;9652;49.014;12.052;2023-04-06T10:32:34;13.00;44.60
19039;DHT22;9652;49.014;12.052;2023-04-06T10:35:11;13.10;44.60
19039;DHT22;9652;49.014;12.052;2023-04-06T10:37:50;13.10;44.40
19039;DHT22;9652;49.014;12.052;2023-04-06T10:40:21;13.20;44.30
19039;DHT22;9652;49.014;12.052;2023-04-06T10:42:51;13.30;44.70
19039;DHT22;9652;49.014;12.052;2023-04-06T10:45:20;13.30;44.60
19039;DHT22;9652;49.014;12.052;2023-04-06T10:47:48;13.40;44.50
19039;DHT22;9652;49.014;12.052;2023-04-06T10:50:17;13.50;44.30
19039;DHT22;9652;49.014;12.052;2023-04-06T10:52:45;13.50;44.00
19039;DHT22;9652;49.014;12.052;2023-04-06T10:55:13;13.60;44.00
19039;DHT22;9652;49.014;12.052;2023-04-06T10:57:42;13.70;43.90
19039;DHT22;9652;49.014;12.052;2023-04-06T11:00:12;13.70;43.80
19039;DHT22;9652;49.014;12.052;2023-04-06T11:02:40;13.70;43.30
19039;DHT22;9652;49.014;12.052;2023-04-06T11:05:07;13.80;43.50
19039;DHT22;9652;49.014;12.052;2023-04-06T11:07:40;13.80;43.20
19039;DHT22;9652;49.014;12.052;2023-04-06T11:10:09;13.80;43.30
19039;DHT22;9652;49.014;12.052;2023-04-06T11:12:36;13.80;43.20
19039;DHT22;9652;49.014;12.052;2023-04-06T11:15:04;13.90;43.50
19039;DHT22;9652;49.014;12.052;2023-04-06T11:17:33;14.00;43.50
19039;DHT22;9652;49.014;12.052;2023-04-06T11:20:03;14.00;43.50
19039;DHT22;9652;49.014;12.052;2023-04-06T11:22:31;14.10;43.30
19039;DHT22;9652;49.014;12.052;2023-04-06T11:25:06;14.20;43.20
19039;DHT22;9652;49.014;12.052;2023-04-06T11:27:34;14.30;42.10
19039;DHT22;9652;49.014;12.052;2023-04-06T11:30:02;14.40;42.80
19039;DHT22;9652;49.014;12.052;2023-04-06T11:32:40;14.40;42.60
19039;DHT22;9652;49.014;12.052;2023-04-06T11:35:10;14.40;41.80
19039;DHT22;9652;49.014;12.052;2023-04-06T11:37:39;14.50;42.90
19039;DHT22;9652;49.014;12.052;2023-04-06T11:40:09;14.50;42.40
19039;DHT22;9652;49.014;12.052;2023-04-06T11:42:37;14.50;41.90
19039;DHT22;9652;49.014;12.052;2023-04-06T11:45:06;14.50;42.00
19039;DHT22;9652;49.014;12.052;2023-04-06T11:47:35;14.40;41.80
19039;DHT22;9652;49.014;12.052;2023-04-06T11:50:08;14.50;41.70
19039;DHT22;9652;49.014;12.052;2023-04-06T11:52:38;14.40;41.00
19039;DHT22;9652;49.014;12.052;2023-04-06T11:55:15;14.40;41.20
19039;DHT22;9652;49.014;12.052;2023-04-06T11:57:43;14.40;40.50
19039;DHT22;9652;49.014;12.052;2023-04-06T12:00:12;14.30;41.00
19039;DHT22;9652;49.014;12.052;2023-04-06T12:02:39;14.30;41.00
19039;DHT22;9652;49.014;12.052;2023-04-06T12:05:12;14.20;40.80
19039;DHT22;9652;49.014;12.052;2023-04-06T12:07:39;14.10;40.90
19039;DHT22;9652;49.014;12.052;2023-04-06T12:10:06;14.10;41.10
19039;DHT22;9652;49.014;12.052;2023-04-06T12:12:35;14.10;41.00
19039;DHT22;9652;49.014;12.052;2023-04-06T12:15:03;14.10;40.80
19039;DHT22;9652;49.014;12.052;2023-04-06T12:17:30;14.20;41.10
19039;DHT22;9652;49.014;12.052;2023-04-06T12:19:58;14.20;40.70
19039;DHT22;9652;49.014;12.052;2023-04-06T12:22:25;14.20;40.80
19039;DHT22;9652;49.014;12.052;2023-04-06T12:24:52;14.30;40.90
19039;DHT22;9652;49.014;12.052;2023-04-06T12:27:19;14.30;41.10
19039;DHT22;9652;49.014;12.052;2023-04-06T12:29:47;14.40;41.20
19039;DHT22;9652;49.014;12.052;2023-04-06T12:32:14;14.50;41.30
19039;DHT22;9652;49.014;12.052;2023-04-06T12:34:41;14.60;41.10
19039;DHT22;9652;49.014;12.052;2023-04-06T12:37:09;14.80;41.10
19039;DHT22;9652;49.014;12.052;2023-04-06T12:39:36;14.90;41.00
19039;DHT22;9652;49.014;12.052;2023-04-06T12:42:03;15.00;40.80
19039;DHT22;9652;49.014;12.052;2023-04-06T12:44:30;15.10;40.70
19039;DHT22;9652;49.014;12.052;2023-04-06T12:46:58;15.20;40.60
19039;DHT22;9652;49.014;12.052;2023-04-06T12:49:26;15.30;40.60
19039;DHT22;9652;49.014;12.052;2023-04-06T12:51:53;15.40;40.40
19039;DHT22;9652;49.014;12.052;2023-04-06T12:54:21;15.40;40.20
19039;DHT22;9652;49.014;12.052;2023-04-06T12:56:48;15.50;40.30
19039;DHT22;9652;49.014;12.052;2023-04-06T12:59:15;15.60;39.90
19039;DHT22;9652;49.014;12.052;2023-04-06T13:01:42;15.60;39.80
19039;DHT22;9652;49.014;12.052;2023-04-06T13:04:11;15.70;39.80
19039;DHT22;9652;49.014;12.052;2023-04-06T13:06:38;15.70;39.80
19039;DHT22;9652;49.014;12.052;2023-04-06T13:09:05;15.80;39.80
19039;DHT22;9652;49.014;12.052;2023-04-06T13:11:33;15.90;40.00
19039;DHT22;9652;49.014;12.052;2023-04-06T13:14:00;16.00;39.90
19039;DHT22;9652;49.014;12.052;2023-04-06T13:16:27;16.10;39.80
19039;DHT22;9652;49.014;12.052;2023-04-06T13:18:54;16.10;39.40
19039;DHT22;9652;49.014;12.052;2023-04-06T13:21:23;16.20;39.20
19039;DHT22;9652;49.014;12.052;2023-04-06T13:23:50;16.30;38.60
19039;DHT22;9652;49.014;12.052;2023-04-06T13:26:17;16.30;38.60
19039;DHT22;9652;49.014;12.052;2023-04-06T13:28:45;16.30;38.70
19039;DHT22;9652;49.014;12.052;2023-04-06T13:31:12;16.30;38.80
19039;DHT22;9652;49.014;12.052;2023-04-06T13:33:40;16.30;38.50
19039;DHT22;9652;49.014;12.052;2023-04-06T13:36:07;16.30;38.50
19039;DHT22;9652;49.014;12.052;2023-04-06T13:38:36;16.30;38.50
19039;DHT22;9652;49.014;12.052;2023-04-06T13:41:04;16.30;38.10
19039;DHT22;9652;49.014;12.052;2023-04-06T13:43:31;16.30;37.90
19039;DHT22;9652;49.014;12.052;2023-04-06T13:45:58;16.20;38.00
19039;DHT22;9652;49.014;12.052;2023-04-06T13:48:26;16.20;38.20
19039;DHT22;9652;49.014;12.052;2023-04-06T13:50:54;16.30;38.60
19039;DHT22;9652;49.014;12.052;2023-04-06T13:53:21;16.30;38.80
19039;DHT22;9652;49.014;12.052;2023-04-06T13:55:56;16.40;39.00
19039;DHT22;9652;49.014;12.052;2023-04-06T13:58:23;16.50;38.70
19039;DHT22;9652;49.014;12.052;2023-04-06T14:00:50;16.70;39.50
19039;DHT22;9652;49.014;12.052;2023-04-06T14:03:18;16.90;39.10
19039;DHT22;9652;49.014;12.052;2023-04-06T14:05:45;17.00;38.80
19039;DHT22;9652;49.014;12.052;2023-04-06T14:08:12;17.20;38.40
19039;DHT22;9652;49.014;12.052;2023-04-06T14:10:40;17.30;38.50
19039;DHT22;9652;49.014;12.052;2023-04-06T14:13:09;17.40;38.50
19039;DHT22;9652;49.014;12.052;2023-04-06T14:15:37;17.50;38.00
19039;DHT22;9652;49.014;12.052;2023-04-06T14:18:04;17.60;37.80
19039;DHT22;9652;49.014;12.052;2023-04-06T14:20:32;17.60;38.00
19039;DHT22;9652;49.014;12.052;2023-04-06T14:22:59;17.70;38.10
19039;DHT22;9652;49.014;12.052;2023-04-06T14:25:26;17.80;37.70
19039;DHT22;9652;49.014;12.052;2023-04-06T14:27:56;17.90;37.00
19039;DHT22;9652;49.014;12.052;2023-04-06T14:30:25;17.90;37.00
19039;DHT22;9652;49.014;12.052;2023-04-06T14:32:54;18.10;37.00
19039;DHT22;9652;49.014;12.052;2023-04-06T14:35:23;18.10;37.20
19039;DHT22;9652;49.014;12.052;2023-04-06T14:37:50;18.20;37.40
19039;DHT22;9652;49.014;12.052;2023-04-06T14:40:18;18.40;37.20
19039;DHT22;9652;49.014;12.052;2023-04-06T14:42:45;18.50;36.80
19039;DHT22;9652;49.014;12.052;2023-04-06T14:45:12;18.70;36.90
19039;DHT22;9652;49.014;12.052;2023-04-06T14:47:40;18.90;37.00
19039;DHT22;9652;49.014;12.052;2023-04-06T14:50:08;19.10;36.90
19039;DHT22;9652;49.014;12.052;2023-04-06T14:52:36;19.40;37.00
19039;DHT22;9652;49.014;12.052;2023-04-06T14:55:04;19.60;36.90
19039;DHT22;9652;49.014;12.052;2023-04-06T14:57:31;19.90;36.70
19039;DHT22;9652;49.014;12.052;2023-04-06T14:59:59;20.10;36.50
19039;DHT22;9652;49.014;12.052;2023-04-06T15:02:26;20.40;36.30
19039;DHT22;9652;49.014;12.052;2023-04-06T15:04:54;20.70;36.10
19039;DHT22;9652;49.014;12.052;2023-04-06T15:07:21;20.90;35.50
19039;DHT22;9652;49.014;12.052;2023-04-06T15:09:48;21.10;35.40
19039;DHT22;9652;49.014;12.052;2023-04-06T15:12:16;21.30;34.90
19039;DHT22;9652;49.014;12.052;2023-04-06T15:14:43;21.50;34.50
19039;DHT22;9652;49.014;12.052;2023-04-06T15:17:10;21.70;34.30
19039;DHT22;9652;49.014;12.052;2023-04-06T15:19:37;21.80;34.50
19039;DHT22;9652;49.014;12.052;2023-04-06T15:22:05;22.00;33.60
19039;DHT22;9652;49.014;12.052;2023-04-06T15:24:32;22.00;33.20
19039;DHT22;9652;49.014;12.052;2023-04-06T15:26:59;22.20;33.40
19039;DHT22;9652;49.014;12.052;2023-04-06T15:29:26;22.40;33.20
19039;DHT22;9652;49.014;12.052;2023-04-06T15:31:53;22.40;32.50
19039;DHT22;9652;49.014;12.052;2023-04-06T15:34:20;22.50;32.40
19039;DHT22;9652;49.014;12.052;2023-04-06T15:36:47;22.60;32.40
19039;DHT22;9652;49.014;12.052;2023-04-06T15:39:16;22.60;32.00
19039;DHT22;9652;49.014;12.052;2023-04-06T15:41:43;22.70;31.60
19039;DHT22;9652;49.014;12.052;2023-04-06T15:44:10;22.70;31.30
19039;DHT22;9652;49.014;12.052;2023-04-06T15:46:37;22.60;30.60
19039;DHT22;9652;49.014;12.052;2023-04-06T15:49:04;22.50;30.10
19039;DHT22;9652;49.014;12.052;2023-04-06T15:51:31;22.30;29.90
19039;DHT22;9652;49.014;12.052;2023-04-06T15:53:58;21.90;29.70